createdAt,value
2018-12-16T00:01:25.535Z,38.50
2018-12-16T00:04:04.574Z,41.97
2018-12-16T00:06:44.219Z,40.90
2018-12-16T00:09:20.083Z,41.00
2018-12-16T00:11:55.990Z,38.53
2018-12-16T00:14:31.731Z,45.80
2018-12-16T00:17:07.735Z,42.57
2018-12-16T00:19:43.501Z,43.00
2018-12-16T00:22:19.959Z,44.27
2018-12-16T00:24:56.839Z,42.70
2018-12-16T00:27:33.265Z,47.47
2018-12-16T00:30:09.995Z,53.37
2018-12-16T00:32:46.572Z,46.67
2018-12-16T00:35:23.166Z,51.33
2018-12-16T00:37:59.975Z,47.47
2018-12-16T00:40:36.222Z,54.20
2018-12-16T00:43:12.895Z,45.43
2018-12-16T00:45:48.818Z,46.77
2018-12-16T00:48:24.553Z,48.30
2018-12-16T00:51:00.350Z,49.17
2018-12-16T00:53:41.306Z,44.67
2018-12-16T00:56:18.154Z,43.17
2018-12-16T00:58:54.650Z,44.10
2018-12-16T01:01:30.423Z,44.93
2018-12-16T01:04:07.427Z,47.00
2018-12-16T01:06:43.600Z,49.13
2018-12-16T01:09:19.715Z,49.03
2018-12-16T01:11:56.397Z,47.30
2018-12-16T01:14:34.093Z,43.73
2018-12-16T01:17:10.195Z,47.37
2018-12-16T01:19:46.050Z,48.33
2018-12-16T01:22:21.840Z,43.90
2018-12-16T01:24:57.539Z,46.97
2018-12-16T01:27:33.520Z,42.67
2018-12-16T01:30:09.531Z,50.67
2018-12-16T01:32:45.158Z,50.97
2018-12-16T01:35:20.859Z,48.77
2018-12-16T01:37:56.771Z,43.20
2018-12-16T01:40:32.667Z,48.00
2018-12-16T01:43:08.507Z,45.20
2018-12-16T01:45:44.300Z,51.77
2018-12-16T01:48:20.119Z,52.03
2018-12-16T01:50:56.151Z,54.27
2018-12-16T01:53:31.838Z,47.43
2018-12-16T01:56:07.818Z,51.47
2018-12-16T01:58:43.774Z,45.80
2018-12-16T02:01:20.522Z,45.83
2018-12-16T02:03:56.510Z,45.23
2018-12-16T02:06:32.250Z,46.70
2018-12-16T02:09:10.521Z,48.23
2018-12-16T02:11:46.392Z,53.00
2018-12-16T02:14:22.106Z,46.67
2018-12-16T02:16:58.301Z,55.07
2018-12-16T02:19:33.775Z,48.40
2018-12-16T02:22:09.852Z,47.13
2018-12-16T02:24:45.906Z,45.60
2018-12-16T02:27:21.694Z,49.03
2018-12-16T02:29:58.500Z,48.37
2018-12-16T02:32:34.770Z,48.20
2018-12-16T02:35:10.720Z,46.87
2018-12-16T02:37:46.564Z,48.33
2018-12-16T02:40:22.184Z,48.77
2018-12-16T02:42:58.223Z,43.67
2018-12-16T02:45:35.229Z,45.63
2018-12-16T02:48:10.964Z,44.10
2018-12-16T02:50:47.093Z,42.37
2018-12-16T02:53:22.737Z,40.83
2018-12-16T02:55:58.685Z,42.50
2018-12-16T02:58:34.474Z,38.93
2018-12-16T03:01:10.185Z,43.97
2018-12-16T03:03:46.630Z,37.13
2018-12-16T03:06:22.825Z,39.97
2018-12-16T03:08:58.801Z,42.07
2018-12-16T03:11:34.485Z,43.50
2018-12-16T03:14:10.236Z,44.10
2018-12-16T03:16:46.963Z,40.93
2018-12-16T03:19:22.928Z,47.03
2018-12-16T03:21:59.212Z,44.97
2018-12-16T03:24:34.747Z,36.47
2018-12-16T03:27:11.419Z,45.90
2018-12-16T03:29:47.277Z,44.57
2018-12-16T03:32:24.203Z,40.47
2018-12-16T03:35:00.147Z,42.53
2018-12-16T03:37:36.115Z,37.73
2018-12-16T03:40:12.168Z,39.30
2018-12-16T03:42:48.015Z,39.90
2018-12-16T03:45:23.793Z,42.80
2018-12-16T03:47:59.928Z,37.27
2018-12-16T03:50:35.786Z,39.23
2018-12-16T03:53:11.516Z,40.33
2018-12-16T03:55:47.351Z,40.10
2018-12-16T03:58:23.336Z,41.67
2018-12-16T04:00:59.459Z,35.47
2018-12-16T04:03:35.534Z,41.80
2018-12-16T04:06:11.306Z,38.83
2018-12-16T04:08:47.367Z,45.00
2018-12-16T04:11:23.438Z,41.80
2018-12-16T04:13:59.259Z,40.40
2018-12-16T04:16:37.023Z,39.13
2018-12-16T04:19:13.160Z,43.70
2018-12-16T04:21:49.000Z,45.53
2018-12-16T04:24:24.917Z,42.13
2018-12-16T04:27:00.838Z,43.73
2018-12-16T04:29:36.427Z,43.93
2018-12-16T04:32:12.406Z,50.47
2018-12-16T04:34:48.049Z,45.73
2018-12-16T04:37:24.062Z,45.67
2018-12-16T04:39:59.928Z,42.17
2018-12-16T04:42:35.990Z,45.70
2018-12-16T04:45:11.789Z,40.20
2018-12-16T04:47:47.706Z,40.53
2018-12-16T04:50:23.615Z,50.60
2018-12-16T04:52:59.408Z,42.93
2018-12-16T04:55:35.436Z,39.97
2018-12-16T04:58:11.171Z,47.70
2018-12-16T05:00:47.159Z,53.17
2018-12-16T05:03:22.896Z,56.83
2018-12-16T05:05:58.677Z,50.33
2018-12-16T05:08:34.611Z,46.47
2018-12-16T05:11:10.523Z,48.07
2018-12-16T05:13:46.423Z,49.43
2018-12-16T05:16:22.322Z,41.87
2018-12-16T05:18:58.353Z,44.63
2018-12-16T05:21:34.826Z,44.10
2018-12-16T05:24:10.624Z,43.37
2018-12-16T05:26:46.262Z,34.67
2018-12-16T05:29:22.245Z,40.67
2018-12-16T05:31:57.928Z,41.00
2018-12-16T05:34:33.827Z,36.23
2018-12-16T05:37:09.810Z,38.57
2018-12-16T05:39:45.751Z,36.87
2018-12-16T05:42:21.853Z,37.00
2018-12-16T05:44:57.551Z,38.93
2018-12-16T05:47:33.598Z,33.63
2018-12-16T05:50:09.582Z,30.63
2018-12-16T05:52:45.933Z,27.87
2018-12-16T05:55:22.055Z,33.70
2018-12-16T05:57:58.015Z,32.23
2018-12-16T06:00:34.049Z,35.77
2018-12-16T06:03:09.674Z,35.83
2018-12-16T06:05:45.573Z,36.77
2018-12-16T06:08:21.417Z,31.33
2018-12-16T06:10:57.115Z,39.60
2018-12-16T06:13:34.066Z,40.67
2018-12-16T06:16:10.201Z,37.90
2018-12-16T06:18:46.102Z,35.30
2018-12-16T06:21:21.993Z,33.87
2018-12-16T06:23:57.728Z,32.07
2018-12-16T06:26:33.759Z,41.27
2018-12-16T06:29:09.750Z,44.70
2018-12-16T06:31:45.367Z,43.23
2018-12-16T06:34:21.112Z,39.70
2018-12-16T06:36:56.964Z,35.90
2018-12-16T06:39:32.865Z,32.87
2018-12-16T06:42:08.963Z,29.27
2018-12-16T06:44:44.812Z,46.03
2018-12-16T06:47:20.849Z,46.07
2018-12-16T06:49:56.737Z,41.07
2018-12-16T06:52:32.684Z,37.13
2018-12-16T06:55:08.975Z,39.13
2018-12-16T06:57:45.533Z,37.63
2018-12-16T07:00:21.340Z,36.40
2018-12-16T07:02:57.267Z,32.20
2018-12-16T07:05:33.078Z,37.03
2018-12-16T07:08:08.962Z,47.47
2018-12-16T07:10:44.662Z,45.03
2018-12-16T07:13:20.726Z,47.03
2018-12-16T07:15:56.429Z,57.83
2018-12-16T07:18:32.510Z,61.10
2018-12-16T07:21:08.057Z,54.80
2018-12-16T07:23:43.988Z,54.20
2018-12-16T07:26:19.782Z,56.13
2018-12-16T07:28:55.862Z,59.70
2018-12-16T07:31:31.620Z,62.33
2018-12-16T07:34:07.398Z,55.20
2018-12-16T07:36:43.377Z,57.93
2018-12-16T07:39:19.448Z,58.53
2018-12-16T07:41:56.119Z,58.90
2018-12-16T07:44:32.025Z,62.50
2018-12-16T07:47:07.854Z,73.33
2018-12-16T07:49:44.797Z,75.77
2018-12-16T07:52:21.497Z,72.70
2018-12-16T07:54:57.237Z,73.30
2018-12-16T07:57:33.675Z,106.97
2018-12-16T08:00:11.508Z,121.27
2018-12-16T08:02:47.975Z,103.57
2018-12-16T08:05:24.457Z,98.77
2018-12-16T08:08:00.761Z,101.80
2018-12-16T08:10:36.675Z,93.67
2018-12-16T08:13:12.540Z,85.73
2018-12-16T08:15:49.073Z,94.60
2018-12-16T08:18:24.812Z,89.00
2018-12-16T08:21:00.850Z,85.23
2018-12-16T08:23:36.526Z,78.77
2018-12-16T08:26:12.395Z,79.03
2018-12-16T08:28:48.392Z,79.57
2018-12-16T08:31:24.718Z,94.80
2018-12-16T08:34:00.991Z,80.63
2018-12-16T08:36:37.684Z,68.80
2018-12-16T08:39:13.939Z,71.07
2018-12-16T08:41:49.993Z,65.40
2018-12-16T08:44:25.721Z,57.80
2018-12-16T08:47:01.706Z,63.87
2018-12-16T08:49:37.599Z,60.43
2018-12-16T08:52:13.501Z,64.50
2018-12-16T08:54:49.497Z,60.63
2018-12-16T08:57:25.314Z,53.60
2018-12-16T09:00:01.212Z,54.73
2018-12-16T09:02:37.027Z,54.73
2018-12-16T09:05:12.879Z,46.17
2018-12-16T09:07:48.655Z,56.00
2018-12-16T09:10:24.683Z,53.20
2018-12-16T09:13:00.571Z,55.27
2018-12-16T09:15:36.563Z,45.67
2018-12-16T09:18:12.632Z,49.77
2018-12-16T09:20:48.970Z,50.90
2018-12-16T09:23:25.149Z,51.17
2018-12-16T09:26:01.096Z,47.57
2018-12-16T09:28:37.002Z,48.77
2018-12-16T09:31:12.719Z,53.80
2018-12-16T09:33:48.877Z,52.83
2018-12-16T09:36:25.535Z,49.67
2018-12-16T09:39:01.541Z,59.20
2018-12-16T09:41:38.448Z,64.60
2018-12-16T09:44:14.388Z,73.30
2018-12-16T09:46:50.263Z,68.67
2018-12-16T09:49:26.827Z,67.50
2018-12-16T09:52:02.896Z,64.40
2018-12-16T09:54:44.205Z,69.10
2018-12-16T09:57:17.434Z,61.30
2018-12-16T09:59:53.224Z,62.13
2018-12-16T10:02:28.837Z,64.67
2018-12-16T10:05:05.337Z,64.27
2018-12-16T10:07:41.703Z,65.47
2018-12-16T10:10:18.452Z,73.50
2018-12-16T10:12:54.351Z,73.07
2018-12-16T10:15:30.155Z,80.23
2018-12-16T10:18:06.176Z,72.10
2018-12-16T10:20:42.799Z,82.53
2018-12-16T10:23:19.401Z,70.00
2018-12-16T10:25:55.317Z,60.53
2018-12-16T10:28:32.699Z,56.87
2018-12-16T10:31:09.293Z,69.70
2018-12-16T10:33:45.286Z,60.67
2018-12-16T10:36:21.022Z,63.83
2018-12-16T10:38:57.445Z,66.37
2018-12-16T10:41:34.319Z,63.07
2018-12-16T10:44:10.176Z,75.33
2018-12-16T10:46:46.345Z,69.93
2018-12-16T10:49:22.902Z,61.47
2018-12-16T10:51:58.991Z,56.63
2018-12-16T10:54:35.454Z,61.20
2018-12-16T10:57:11.349Z,52.33
2018-12-16T10:59:47.294Z,59.80
2018-12-16T11:02:23.296Z,57.23
2018-12-16T11:04:58.986Z,57.80
2018-12-16T11:07:35.392Z,55.90
2018-12-16T11:10:11.938Z,58.10
2018-12-16T11:12:47.987Z,59.10
2018-12-16T11:15:24.662Z,57.00
2018-12-16T11:18:00.346Z,50.63
2018-12-16T11:20:36.160Z,49.03
2018-12-16T11:23:13.190Z,53.97
2018-12-16T11:25:51.775Z,56.63
2018-12-16T11:28:28.083Z,54.33
2018-12-16T11:31:04.724Z,59.87
2018-12-16T11:33:40.899Z,57.80
2018-12-16T11:36:17.132Z,62.20
2018-12-16T11:38:53.683Z,54.97
2018-12-16T11:41:30.517Z,55.50
2018-12-16T11:44:07.772Z,57.13
2018-12-16T11:46:44.489Z,63.40
2018-12-16T11:49:21.467Z,63.90
2018-12-16T11:51:58.000Z,67.27
2018-12-16T11:54:35.253Z,62.73
2018-12-16T11:57:11.872Z,55.40
2018-12-16T11:59:48.844Z,64.77
2018-12-16T12:02:25.303Z,69.73
2018-12-16T12:05:04.310Z,65.43
2018-12-16T12:07:41.732Z,70.50
2018-12-16T12:10:18.986Z,67.23
2018-12-16T12:12:55.991Z,63.27
2018-12-16T12:15:33.349Z,58.10
2018-12-16T12:18:11.592Z,66.37
2018-12-16T12:20:49.291Z,69.83
2018-12-16T12:23:27.067Z,69.53
2018-12-16T12:26:04.881Z,61.77
2018-12-16T12:28:42.005Z,57.90
2018-12-16T12:31:18.499Z,65.20
2018-12-16T12:33:54.821Z,76.07
2018-12-16T12:36:30.793Z,60.33
2018-12-16T12:39:07.453Z,57.00
2018-12-16T12:41:45.606Z,57.57
2018-12-16T12:44:22.858Z,57.90
2018-12-16T12:47:00.166Z,60.17
2018-12-16T12:49:36.658Z,57.30
2018-12-16T12:52:14.075Z,57.57
2018-12-16T12:54:50.908Z,55.47
2018-12-16T12:57:27.049Z,56.20
2018-12-16T13:00:06.441Z,54.47
2018-12-16T13:02:43.067Z,53.23
2018-12-16T13:05:19.938Z,58.47
2018-12-16T13:07:56.523Z,50.37
2018-12-16T13:10:32.468Z,51.73
2018-12-16T13:13:09.252Z,61.97
2018-12-16T13:15:45.906Z,61.97
2018-12-16T13:18:23.005Z,58.57
2018-12-16T13:20:59.671Z,57.57
2018-12-16T13:23:36.486Z,54.50
2018-12-16T13:26:12.391Z,61.83
2018-12-16T13:28:48.177Z,57.63
2018-12-16T13:31:24.924Z,55.50
2018-12-16T13:34:01.787Z,60.37
2018-12-16T13:36:38.761Z,60.17
2018-12-16T13:39:16.017Z,57.40
2018-12-16T13:41:52.762Z,61.53
2018-12-16T13:44:29.990Z,63.30
2018-12-16T13:47:06.673Z,61.77
2018-12-16T13:49:43.378Z,78.23
2018-12-16T13:52:19.308Z,89.57
2018-12-16T13:54:55.494Z,80.53
2018-12-16T13:57:33.414Z,73.30
2018-12-16T14:00:10.139Z,83.30
2018-12-16T14:02:48.109Z,67.53
2018-12-16T14:05:25.054Z,70.90
2018-12-16T14:08:02.297Z,73.20
2018-12-16T14:10:39.031Z,80.33
2018-12-16T14:13:14.708Z,77.23
2018-12-16T14:15:52.593Z,81.60
2018-12-16T14:18:29.005Z,81.00
2018-12-16T14:21:05.484Z,86.27
2018-12-16T14:23:41.234Z,85.90
2018-12-16T14:26:17.286Z,84.07
2018-12-16T14:28:53.400Z,72.47
2018-12-16T14:31:29.721Z,80.00
2018-12-16T14:34:05.651Z,71.53
2018-12-16T14:36:41.347Z,78.70
2018-12-16T14:39:17.498Z,83.37
2018-12-16T14:41:54.144Z,84.07
2018-12-16T14:44:29.966Z,84.07
2018-12-16T14:47:07.239Z,80.73
2018-12-16T14:49:43.648Z,92.23
2018-12-16T14:52:20.941Z,104.63
2018-12-16T14:54:57.201Z,116.87
2018-12-16T14:57:33.459Z,92.00
2018-12-16T15:00:11.750Z,107.63
2018-12-16T15:02:48.919Z,120.43
2018-12-16T15:05:25.625Z,125.97
2018-12-16T15:08:02.180Z,121.77
2018-12-16T15:10:38.306Z,131.00
2018-12-16T15:13:14.441Z,143.17
2018-12-16T15:15:51.777Z,156.07
2018-12-16T15:18:27.900Z,139.00
2018-12-16T15:21:04.651Z,138.03
2018-12-16T15:23:41.154Z,124.03
2018-12-16T15:26:17.276Z,101.07
2018-12-16T15:28:53.401Z,88.87
2018-12-16T15:31:29.216Z,77.60
2018-12-16T15:34:04.999Z,75.53
2018-12-16T15:36:40.730Z,71.63
2018-12-16T15:39:17.430Z,65.40
2018-12-16T15:41:55.394Z,63.87
2018-12-16T15:44:32.766Z,65.53
2018-12-16T15:47:09.679Z,61.83
2018-12-16T15:49:46.331Z,61.47
2018-12-16T15:52:22.098Z,73.77
2018-12-16T15:54:58.272Z,79.67
2018-12-16T15:57:35.456Z,94.50
2018-12-16T16:00:11.463Z,98.53
2018-12-16T16:02:48.456Z,96.23
2018-12-16T16:05:25.373Z,89.03
2018-12-16T16:08:01.747Z,78.87
2018-12-16T16:10:38.960Z,78.93
2018-12-16T16:13:16.698Z,75.27
2018-12-16T16:15:53.484Z,77.13
2018-12-16T16:18:30.373Z,77.67
2018-12-16T16:21:06.991Z,81.63
2018-12-16T16:23:42.824Z,78.23
2018-12-16T16:26:18.868Z,73.97
2018-12-16T16:28:55.650Z,74.53
2018-12-16T16:31:31.901Z,72.37
2018-12-16T16:34:08.426Z,73.77
2018-12-16T16:36:44.228Z,72.13
2018-12-16T16:39:20.472Z,76.60
2018-12-16T16:41:56.492Z,74.20
2018-12-16T16:44:33.140Z,84.03
2018-12-16T16:47:09.810Z,88.73
2018-12-16T16:49:46.304Z,73.03
2018-12-16T16:52:22.313Z,71.83
2018-12-16T16:54:59.313Z,66.00
2018-12-16T16:57:36.303Z,92.17
2018-12-16T17:00:14.758Z,79.20
2018-12-16T17:02:52.172Z,96.23
2018-12-16T17:05:29.151Z,87.00
2018-12-16T17:08:05.197Z,95.27
2018-12-16T17:10:43.318Z,107.47
2018-12-16T17:13:20.430Z,113.20
2018-12-16T17:15:57.736Z,94.37
2018-12-16T17:18:34.831Z,80.77
2018-12-16T17:21:11.733Z,78.43
2018-12-16T17:23:48.273Z,91.57
2018-12-16T17:26:29.970Z,118.43
2018-12-16T17:29:04.062Z,119.77
2018-12-16T17:31:40.998Z,127.10
2018-12-16T17:34:18.021Z,149.20
2018-12-16T17:36:53.895Z,132.83
2018-12-16T17:39:30.490Z,145.83
2018-12-16T17:42:06.775Z,137.87
2018-12-16T17:44:43.895Z,138.47
2018-12-16T17:47:22.200Z,129.30
2018-12-16T17:49:58.427Z,128.37
2018-12-16T17:52:35.471Z,113.60
2018-12-16T17:55:12.423Z,112.60
2018-12-16T17:57:49.512Z,111.60
2018-12-16T18:00:27.510Z,116.33
2018-12-16T18:03:03.847Z,119.77
2018-12-16T18:05:40.905Z,103.87
2018-12-16T18:08:17.685Z,95.60
2018-12-16T18:10:55.514Z,95.63
2018-12-16T18:13:32.588Z,107.30
2018-12-16T18:16:09.083Z,111.13
2018-12-16T18:18:45.392Z,134.93
2018-12-16T18:21:22.196Z,142.53
2018-12-16T18:23:58.974Z,150.87
2018-12-16T18:26:35.919Z,132.60
2018-12-16T18:29:13.080Z,143.00
2018-12-16T18:31:51.791Z,133.17
2018-12-16T18:34:28.499Z,129.70
2018-12-16T18:37:04.355Z,148.23
2018-12-16T18:39:42.492Z,139.30
2018-12-16T18:42:18.900Z,110.97
2018-12-16T18:44:55.051Z,96.60
2018-12-16T18:47:32.008Z,90.77
2018-12-16T18:50:10.050Z,93.37
2018-12-16T18:52:46.692Z,95.10
2018-12-16T18:55:24.788Z,79.97
2018-12-16T18:58:01.583Z,84.33
2018-12-16T19:00:37.472Z,85.03
2018-12-16T19:03:14.093Z,80.73
2018-12-16T19:05:50.262Z,79.67
2018-12-16T19:08:26.325Z,90.80
2018-12-16T19:11:02.165Z,79.17
2018-12-16T19:13:38.034Z,76.13
2018-12-16T19:16:14.044Z,85.43
2018-12-16T19:18:50.181Z,79.63
2018-12-16T19:21:26.726Z,86.53
2018-12-16T19:24:02.963Z,87.60
2018-12-16T19:26:40.612Z,92.93
2018-12-16T19:29:17.004Z,94.47
2018-12-16T19:31:53.231Z,104.20
2018-12-16T19:34:30.187Z,108.83
2018-12-16T19:37:06.896Z,107.47
2018-12-16T19:39:42.921Z,104.67
2018-12-16T19:42:18.794Z,110.40
2018-12-16T19:44:54.559Z,104.40
2018-12-16T19:47:30.314Z,99.63
2018-12-16T19:50:06.843Z,94.37
2018-12-16T19:52:42.933Z,100.50
2018-12-16T19:55:19.439Z,95.57
2018-12-16T19:57:56.113Z,101.33
2018-12-16T20:00:31.963Z,96.53
2018-12-16T20:03:07.910Z,94.20
2018-12-16T20:05:48.920Z,89.33
2018-12-16T20:08:25.668Z,84.73
2018-12-16T20:11:01.695Z,84.00
2018-12-16T20:13:37.653Z,81.67
2018-12-16T20:16:13.579Z,80.63
2018-12-16T20:18:49.875Z,79.70
2018-12-16T20:21:26.835Z,85.47
2018-12-16T20:24:03.384Z,91.43
2018-12-16T20:26:40.391Z,87.67
2018-12-16T20:29:16.977Z,91.40
2018-12-16T20:31:53.054Z,90.63
2018-12-16T20:34:28.767Z,77.33
2018-12-16T20:37:04.669Z,79.40
2018-12-16T20:39:40.349Z,81.77
2018-12-16T20:42:17.044Z,82.43
2018-12-16T20:44:53.230Z,81.27
2018-12-16T20:47:29.252Z,88.43
2018-12-16T20:50:06.492Z,83.27
2018-12-16T20:52:43.054Z,82.57
2018-12-16T20:55:19.066Z,85.07
2018-12-16T20:57:55.952Z,86.67
2018-12-16T21:00:32.650Z,91.23
2018-12-16T21:03:08.624Z,100.23
2018-12-16T21:05:45.341Z,83.57
2018-12-16T21:08:23.755Z,82.40
2018-12-16T21:11:03.825Z,83.23
2018-12-16T21:13:44.809Z,80.30
2018-12-16T21:16:27.132Z,81.13
2018-12-16T21:19:06.776Z,82.23
2018-12-16T21:21:43.967Z,104.43
2018-12-16T21:24:21.006Z,94.70
2018-12-16T21:26:58.082Z,78.23
2018-12-16T21:29:34.403Z,86.87
2018-12-16T21:32:10.102Z,81.00
2018-12-16T21:34:46.097Z,83.07
2018-12-16T21:37:22.042Z,88.43
2018-12-16T21:39:57.913Z,79.40
2018-12-16T21:42:33.904Z,79.13
2018-12-16T21:45:09.763Z,78.93
2018-12-16T21:47:45.583Z,69.77
2018-12-16T21:50:21.366Z,77.27
2018-12-16T21:52:58.080Z,72.70
2018-12-16T21:55:34.127Z,84.77
2018-12-16T21:58:10.047Z,79.57
2018-12-16T22:00:47.135Z,79.57
2018-12-16T22:03:24.042Z,81.73
2018-12-16T22:06:01.421Z,81.13
2018-12-16T22:08:37.321Z,86.90
2018-12-16T22:11:13.312Z,82.90
2018-12-16T22:13:49.033Z,91.33
2018-12-16T22:16:24.960Z,87.03
2018-12-16T22:19:00.785Z,85.57
2018-12-16T22:21:36.531Z,83.83
2018-12-16T22:24:12.440Z,79.47
2018-12-16T22:26:48.229Z,86.77
2018-12-16T22:29:24.823Z,95.17
2018-12-16T22:32:04.028Z,99.30
2018-12-16T22:34:40.019Z,110.00
2018-12-16T22:37:15.722Z,122.43
2018-12-16T22:39:51.474Z,112.97
2018-12-16T22:42:27.124Z,97.17
2018-12-16T22:45:03.996Z,114.83
2018-12-16T22:47:40.329Z,106.07
2018-12-16T22:50:16.275Z,101.57
2018-12-16T22:52:52.536Z,106.03
2018-12-16T22:55:29.180Z,117.87
2018-12-16T22:58:05.112Z,97.90
2018-12-16T23:00:46.230Z,100.30
2018-12-16T23:03:22.596Z,92.43
2018-12-16T23:06:00.658Z,95.60
2018-12-16T23:08:36.442Z,85.27
2018-12-16T23:11:12.406Z,92.50
2018-12-16T23:13:49.548Z,81.93
2018-12-16T23:16:27.087Z,76.67
2018-12-16T23:19:03.153Z,87.33
2018-12-16T23:21:39.028Z,89.73
2018-12-16T23:24:15.211Z,90.03
2018-12-16T23:26:51.604Z,83.80
2018-12-16T23:29:27.620Z,95.67
2018-12-16T23:32:04.328Z,89.33
2018-12-16T23:34:41.270Z,103.20
2018-12-16T23:37:16.854Z,96.27
2018-12-16T23:39:52.719Z,100.87
2018-12-16T23:42:28.477Z,95.83
2018-12-16T23:45:04.770Z,89.73
2018-12-16T23:47:41.297Z,83.07
2018-12-16T23:50:17.175Z,92.10
2018-12-16T23:52:53.233Z,96.07
2018-12-16T23:55:29.277Z,98.37
2018-12-16T23:58:04.938Z,99.13
